PWSweather.com
Personal Weather Stations
Station Observations
KMOCREVE3
Whispering Hills, Creve Coeur, MO 63146

Whispering HillsCreve Coeur, MO 63146

Lat: 38.68, Lon: -90.463

Elevation: 530

Station Type: Vantage Vue

Latest ConditionsUpdated 6:10:01 PM CST Sunday, Nov 19, 2017
Currently Today's Max Today's Min Today's Average
Temperature 34.8°F1.6°C 43.6°F6.4°C 31.9°F-0.1°C 36.9°F2.7°C
Dew Point 25.7°F-3.5°C 28.0°F-2.2°C 19.6°F-6.9°C 23.6°F-4.7°C
Winds Calm Calm 6.0 mph NW9.7 kmh NW - 2.1 mph 3.4 kmh
Wind Gusts -- 14.0 mph22.5 kmh - -
Humidity 69% 73% 43% 59%
Pressure 30.22 in1023.4 mb 30.27 in1025.1 mb 30.08 in1018.6 mb -
Hour Temp Dew Point Humidity Winds Wind Gusts Pressure Precip Precip Rate Daily Precip Total
06:10 PM 34.8°F1.6°C 25.7°F-3.5°C 69% Calm Calm -- 30.22 in1023.4 mb 0.00 in0.0 mm 0.00 in0.0 mm 0.00 in0.0 mm
06:00 PM 35.4°F1.9°C 26.2°F-3.2°C 69% Calm Calm -- 30.21 in1023.0 mb 0.00 in0.0 mm 0.00 in0.0 mm 0.00 in0.0 mm
05:50 PM 35.7°F2.1°C 25.4°F-3.7°C 66% Calm Calm -- 30.21 in1023.0 mb 0.00 in0.0 mm 0.00 in0.0 mm 0.00 in0.0 mm
05:40 PM 36.1°F2.3°C 25.5°F-3.6°C 65% Calm Calm -- 30.21 in1023.0 mb 0.00 in0.0 mm 0.00 in0.0 mm 0.00 in0.0 mm
05:30 PM 36.9°F2.7°C 25.5°F-3.6°C 63% Calm Calm -- 30.21 in1023.0 mb 0.00 in0.0 mm 0.00 in0.0 mm 0.00 in0.0 mm
05:20 PM 38.0°F3.3°C 25.3°F-3.7°C 60% Calm Calm -- 30.21 in1023.0 mb 0.00 in0.0 mm 0.00 in0.0 mm 0.00 in0.0 mm
05:10 PM 39.1°F3.9°C 25.6°F-3.6°C 58% Calm Calm -- 30.21 in1023.0 mb 0.00 in0.0 mm 0.00 in0.0 mm 0.00 in0.0 mm
05:00 PM 39.9°F4.4°C 25.0°F-3.9°C 55% Calm Calm 1.0 mph1.6 kmh 30.20 in1022.7 mb 0.00 in0.0 mm 0.00 in0.0 mm 0.00 in0.0 mm
04:50 PM 40.7°F4.8°C 24.0°F-4.4°C 51% Calm Calm 1.0 mph1.6 kmh 30.21 in1023.0 mb 0.00 in0.0 mm 0.00 in0.0 mm 0.00 in0.0 mm
04:40 PM 41.2°F5.1°C 23.5°F-4.7°C 49% Calm Calm 2.0 mph3.2 kmh 30.21 in1023.0 mb 0.00 in0.0 mm 0.00 in0.0 mm 0.00 in0.0 mm
04:30 PM 41.5°F5.3°C 25.2°F-3.8°C 52% 1.0 mph NW1.6 kmh NW 3.0 mph4.8 kmh 30.21 in1023.0 mb 0.00 in0.0 mm 0.00 in0.0 mm 0.00 in0.0 mm
04:20 PM 41.8°F5.4°C 23.0°F-5.0°C 47% Calm Calm 3.0 mph4.8 kmh 30.20 in1022.7 mb 0.00 in0.0 mm 0.00 in0.0 mm 0.00 in0.0 mm
04:10 PM 42.4°F5.8°C 23.1°F-4.9°C 46% 1.0 mph NW1.6 kmh NW 3.0 mph4.8 kmh 30.20 in1022.7 mb 0.00 in0.0 mm 0.00 in0.0 mm 0.00 in0.0 mm
04:00 PM 42.9°F6.1°C 23.5°F-4.7°C 46% 1.0 mph W1.6 kmh W 3.0 mph4.8 kmh 30.20 in1022.7 mb 0.00 in0.0 mm 0.00 in0.0 mm 0.00 in0.0 mm
03:50 PM 42.7°F5.9°C 23.8°F-4.6°C 47% 2.0 mph NW3.2 kmh NW 5.0 mph8.0 kmh 30.21 in1023.0 mb 0.00 in0.0 mm 0.00 in0.0 mm 0.00 in0.0 mm
03:40 PM 43.3°F6.3°C 23.4°F-4.8°C 45% 2.0 mph NW3.2 kmh NW 5.0 mph8.0 kmh 30.21 in1023.0 mb 0.00 in0.0 mm 0.00 in0.0 mm 0.00 in0.0 mm
03:30 PM 43.6°F6.4°C 24.2°F-4.3°C 46% 1.0 mph WNW1.6 kmh WNW 4.0 mph6.4 kmh 30.21 in1023.0 mb 0.00 in0.0 mm 0.00 in0.0 mm 0.00 in0.0 mm
03:20 PM 43.3°F6.3°C 23.9°F-4.5°C 46% 2.0 mph NW3.2 kmh NW 6.0 mph9.7 kmh 30.21 in1023.0 mb 0.00 in0.0 mm 0.00 in0.0 mm 0.00 in0.0 mm
03:10 PM 43.2°F6.2°C 23.8°F-4.6°C 46% 3.0 mph NW4.8 kmh NW 8.0 mph12.9 kmh 30.21 in1023.0 mb 0.00 in0.0 mm 0.00 in0.0 mm 0.00 in0.0 mm
03:00 PM 43.2°F6.2°C 22.7°F-5.2°C 44% 2.0 mph NW3.2 kmh NW 9.0 mph14.5 kmh 30.21 in1023.0 mb 0.00 in0.0 mm 0.00 in0.0 mm 0.00 in0.0 mm
02:50 PM 43.3°F6.3°C 22.8°F-5.1°C 44% 2.0 mph NW3.2 kmh NW 4.0 mph6.4 kmh 30.21 in1023.0 mb 0.00 in0.0 mm 0.00 in0.0 mm 0.00 in0.0 mm
02:40 PM 43.2°F6.2°C 22.7°F-5.2°C 44% 3.0 mph NW4.8 kmh NW 9.0 mph14.5 kmh 30.21 in1023.0 mb 0.00 in0.0 mm 0.00 in0.0 mm 0.00 in0.0 mm
02:30 PM 43.2°F6.2°C 23.3°F-4.8°C 45% 2.0 mph NW3.2 kmh NW 10.0 mph16.1 kmh 30.22 in1023.4 mb 0.00 in0.0 mm 0.00 in0.0 mm 0.00 in0.0 mm
02:20 PM 42.6°F5.9°C 21.6°F-5.8°C 43% 2.0 mph NW3.2 kmh NW 6.0 mph9.7 kmh 30.22 in1023.4 mb 0.00 in0.0 mm 0.00 in0.0 mm 0.00 in0.0 mm
02:10 PM 42.2°F5.7°C 22.4°F-5.3°C 45% 3.0 mph NW4.8 kmh NW 14.0 mph22.5 kmh 30.22 in1023.4 mb 0.00 in0.0 mm 0.00 in0.0 mm 0.00 in0.0 mm
02:00 PM 42.2°F5.7°C 22.4°F-5.3°C 45% 2.0 mph NW3.2 kmh NW 8.0 mph12.9 kmh 30.23 in1023.7 mb 0.00 in0.0 mm 0.00 in0.0 mm 0.00 in0.0 mm
01:50 PM 41.5°F5.3°C 21.7°F-5.7°C 45% 2.0 mph NW3.2 kmh NW 9.0 mph14.5 kmh 30.23 in1023.7 mb 0.00 in0.0 mm 0.00 in0.0 mm 0.00 in0.0 mm
01:40 PM 41.5°F5.3°C 21.7°F-5.7°C 45% 2.0 mph NW3.2 kmh NW 7.0 mph11.3 kmh 30.23 in1023.7 mb 0.00 in0.0 mm 0.00 in0.0 mm 0.00 in0.0 mm
01:30 PM 41.2°F5.1°C 21.4°F-5.9°C 45% 2.0 mph NW3.2 kmh NW 8.0 mph12.9 kmh 30.22 in1023.4 mb 0.00 in0.0 mm 0.00 in0.0 mm 0.00 in0.0 mm
01:20 PM 41.2°F5.1°C 22.0°F-5.6°C 46% 2.0 mph WNW3.2 kmh WNW 9.0 mph14.5 kmh 30.23 in1023.7 mb 0.00 in0.0 mm 0.00 in0.0 mm 0.00 in0.0 mm
01:10 PM 41.6°F5.3°C 21.8°F-5.7°C 45% 1.0 mph NW1.6 kmh NW 7.0 mph11.3 kmh 30.23 in1023.7 mb 0.00 in0.0 mm 0.00 in0.0 mm 0.00 in0.0 mm
01:00 PM 40.9°F4.9°C 22.7°F-5.2°C 48% 2.0 mph NW3.2 kmh NW 5.0 mph8.0 kmh 30.23 in1023.7 mb 0.00 in0.0 mm 0.00 in0.0 mm 0.00 in0.0 mm
12:50 PM 40.3°F4.6°C 22.1°F-5.5°C 48% 3.0 mph NW4.8 kmh NW 9.0 mph14.5 kmh 30.24 in1024.0 mb 0.00 in0.0 mm 0.00 in0.0 mm 0.00 in0.0 mm
12:40 PM 39.7°F4.3°C 23.5°F-4.7°C 52% 3.0 mph NW4.8 kmh NW 12.0 mph19.3 kmh 30.25 in1024.4 mb 0.00 in0.0 mm 0.00 in0.0 mm 0.00 in0.0 mm
12:30 PM 39.7°F4.3°C 23.0°F-5.0°C 51% 2.0 mph NW3.2 kmh NW 7.0 mph11.3 kmh 30.25 in1024.4 mb 0.00 in0.0 mm 0.00 in0.0 mm 0.00 in0.0 mm
12:20 PM 39.1°F3.9°C 21.0°F-6.1°C 48% 3.0 mph NW4.8 kmh NW 11.0 mph17.7 kmh 30.25 in1024.4 mb 0.00 in0.0 mm 0.00 in0.0 mm 0.00 in0.0 mm
12:10 PM 38.6°F3.7°C 19.6°F-6.9°C 46% 3.0 mph NW4.8 kmh NW 9.0 mph14.5 kmh 30.25 in1024.4 mb 0.00 in0.0 mm 0.00 in0.0 mm 0.00 in0.0 mm
12:00 PM 38.1°F3.4°C 19.6°F-6.9°C 47% 4.0 mph NW6.4 kmh NW 12.0 mph19.3 kmh 30.25 in1024.4 mb 0.00 in0.0 mm 0.00 in0.0 mm 0.00 in0.0 mm
11:50 AM 37.6°F3.1°C 19.7°F-6.8°C 48% 6.0 mph NW9.7 kmh NW 12.0 mph19.3 kmh 30.26 in1024.7 mb 0.00 in0.0 mm 0.00 in0.0 mm 0.00 in0.0 mm
11:40 AM 37.7°F3.2°C 21.2°F-6.0°C 51% 4.0 mph NW6.4 kmh NW 13.0 mph20.9 kmh 30.26 in1024.7 mb 0.00 in0.0 mm 0.00 in0.0 mm 0.00 in0.0 mm
11:30 AM 38.0°F3.3°C 22.4°F-5.3°C 53% 3.0 mph NW4.8 kmh NW 9.0 mph14.5 kmh 30.26 in1024.7 mb 0.00 in0.0 mm 0.00 in0.0 mm 0.00 in0.0 mm
11:20 AM 37.8°F3.2°C 22.2°F-5.4°C 53% 2.0 mph NW3.2 kmh NW 9.0 mph14.5 kmh 30.26 in1024.7 mb 0.00 in0.0 mm 0.00 in0.0 mm 0.00 in0.0 mm
11:10 AM 36.9°F2.7°C 20.0°F-6.7°C 50% 4.0 mph NW6.4 kmh NW 11.0 mph17.7 kmh 30.26 in1024.7 mb 0.00 in0.0 mm 0.00 in0.0 mm 0.00 in0.0 mm
11:00 AM 36.8°F2.7°C 19.9°F-6.7°C 50% 3.0 mph NW4.8 kmh NW 11.0 mph17.7 kmh 30.26 in1024.7 mb 0.00 in0.0 mm 0.00 in0.0 mm 0.00 in0.0 mm
10:50 AM 36.5°F2.5°C 20.1°F-6.6°C 51% 4.0 mph NW6.4 kmh NW 12.0 mph19.3 kmh 30.27 in1025.1 mb 0.00 in0.0 mm 0.00 in0.0 mm 0.00 in0.0 mm
10:40 AM 35.7°F2.1°C 19.8°F-6.8°C 52% 4.0 mph NW6.4 kmh NW 10.0 mph16.1 kmh 30.26 in1024.7 mb 0.00 in0.0 mm 0.00 in0.0 mm 0.00 in0.0 mm
10:30 AM 35.8°F2.1°C 20.8°F-6.2°C 54% 4.0 mph NW6.4 kmh NW 10.0 mph16.1 kmh 30.26 in1024.7 mb 0.00 in0.0 mm 0.00 in0.0 mm 0.00 in0.0 mm
10:20 AM 35.5°F1.9°C 19.6°F-6.9°C 52% 3.0 mph NW4.8 kmh NW 10.0 mph16.1 kmh 30.25 in1024.4 mb 0.00 in0.0 mm 0.00 in0.0 mm 0.00 in0.0 mm
10:10 AM 35.5°F1.9°C 19.6°F-6.9°C 52% 2.0 mph NW3.2 kmh NW 7.0 mph11.3 kmh 30.25 in1024.4 mb 0.00 in0.0 mm 0.00 in0.0 mm 0.00 in0.0 mm
10:00 AM 35.2°F1.8°C 21.1°F-6.1°C 56% 4.0 mph NW6.4 kmh NW 8.0 mph12.9 kmh 30.25 in1024.4 mb 0.00 in0.0 mm 0.00 in0.0 mm 0.00 in0.0 mm
09:50 AM 35.4°F1.9°C 21.2°F-6.0°C 56% 2.0 mph NW3.2 kmh NW 11.0 mph17.7 kmh 30.25 in1024.4 mb 0.00 in0.0 mm 0.00 in0.0 mm 0.00 in0.0 mm
09:40 AM 35.0°F1.7°C 21.7°F-5.7°C 58% 2.0 mph NW3.2 kmh NW 6.0 mph9.7 kmh 30.25 in1024.4 mb 0.00 in0.0 mm 0.00 in0.0 mm 0.00 in0.0 mm
09:30 AM 34.6°F1.4°C 22.1°F-5.5°C 60% 2.0 mph NW3.2 kmh NW 5.0 mph8.0 kmh 30.24 in1024.0 mb 0.00 in0.0 mm 0.00 in0.0 mm 0.00 in0.0 mm
09:20 AM 34.1°F1.2°C 20.9°F-6.2°C 58% 3.0 mph NW4.8 kmh NW 10.0 mph16.1 kmh 30.24 in1024.0 mb 0.00 in0.0 mm 0.00 in0.0 mm 0.00 in0.0 mm
09:10 AM 34.0°F1.1°C 21.6°F-5.8°C 60% 3.0 mph NW4.8 kmh NW 10.0 mph16.1 kmh 30.24 in1024.0 mb 0.00 in0.0 mm 0.00 in0.0 mm 0.00 in0.0 mm
09:00 AM 33.9°F1.1°C 21.1°F-6.1°C 59% 4.0 mph NW6.4 kmh NW 10.0 mph16.1 kmh 30.24 in1024.0 mb 0.00 in0.0 mm 0.00 in0.0 mm 0.00 in0.0 mm
08:50 AM 34.2°F1.2°C 22.5°F-5.3°C 62% 1.0 mph NW1.6 kmh NW 4.0 mph6.4 kmh 30.23 in1023.7 mb 0.00 in0.0 mm 0.00 in0.0 mm 0.00 in0.0 mm
08:40 AM 33.6°F0.9°C 22.0°F-5.6°C 62% 3.0 mph NW4.8 kmh NW 14.0 mph22.5 kmh 30.23 in1023.7 mb 0.00 in0.0 mm 0.00 in0.0 mm 0.00 in0.0 mm
08:30 AM 33.6°F0.9°C 22.7°F-5.2°C 64% 2.0 mph NW3.2 kmh NW 9.0 mph14.5 kmh 30.23 in1023.7 mb 0.00 in0.0 mm 0.00 in0.0 mm 0.00 in0.0 mm
08:20 AM 33.3°F0.7°C 23.2°F-4.9°C 66% 3.0 mph NW4.8 kmh NW 8.0 mph12.9 kmh 30.23 in1023.7 mb 0.00 in0.0 mm 0.00 in0.0 mm 0.00 in0.0 mm
08:10 AM 33.3°F0.7°C 22.8°F-5.1°C 65% 2.0 mph NW3.2 kmh NW 9.0 mph14.5 kmh 30.22 in1023.4 mb 0.00 in0.0 mm 0.00 in0.0 mm 0.00 in0.0 mm
08:00 AM 32.8°F0.4°C 21.6°F-5.8°C 63% 2.0 mph NW3.2 kmh NW 10.0 mph16.1 kmh 30.21 in1023.0 mb 0.00 in0.0 mm 0.00 in0.0 mm 0.00 in0.0 mm
07:50 AM 32.3°F0.2°C 21.5°F-5.8°C 64% 2.0 mph NW3.2 kmh NW 10.0 mph16.1 kmh 30.20 in1022.7 mb 0.00 in0.0 mm 0.00 in0.0 mm 0.00 in0.0 mm
07:40 AM 32.1°F0.1°C 23.1°F-4.9°C 69% 2.0 mph NW3.2 kmh NW 8.0 mph12.9 kmh 30.20 in1022.7 mb 0.00 in0.0 mm 0.00 in0.0 mm 0.00 in0.0 mm
07:30 AM 32.0°F0.0°C 22.6°F-5.2°C 68% 2.0 mph NW3.2 kmh NW 7.0 mph11.3 kmh 30.20 in1022.7 mb 0.00 in0.0 mm 0.00 in0.0 mm 0.00 in0.0 mm
07:20 AM 31.9°F-0.1°C 22.5°F-5.3°C 68% 2.0 mph NW3.2 kmh NW 9.0 mph14.5 kmh 30.20 in1022.7 mb 0.00 in0.0 mm 0.00 in0.0 mm 0.00 in0.0 mm
07:10 AM 31.9°F-0.1°C 22.9°F-5.1°C 69% 2.0 mph NW3.2 kmh NW 7.0 mph11.3 kmh 30.19 in1022.4 mb 0.00 in0.0 mm 0.00 in0.0 mm 0.00 in0.0 mm
07:00 AM 32.0°F0.0°C 23.3°F-4.8°C 70% 3.0 mph NW4.8 kmh NW 8.0 mph12.9 kmh 30.18 in1022.0 mb 0.00 in0.0 mm 0.00 in0.0 mm 0.00 in0.0 mm
06:50 AM 32.1°F0.1°C 23.8°F-4.6°C 71% 2.0 mph NW3.2 kmh NW 8.0 mph12.9 kmh 30.18 in1022.0 mb 0.00 in0.0 mm 0.00 in0.0 mm 0.00 in0.0 mm
06:40 AM 32.2°F0.1°C 23.5°F-4.7°C 70% 3.0 mph NW4.8 kmh NW 10.0 mph16.1 kmh 30.17 in1021.7 mb 0.00 in0.0 mm 0.00 in0.0 mm 0.00 in0.0 mm
06:30 AM 32.1°F0.1°C 24.1°F-4.4°C 72% 2.0 mph NW3.2 kmh NW 8.0 mph12.9 kmh 30.18 in1022.0 mb 0.00 in0.0 mm 0.00 in0.0 mm 0.00 in0.0 mm
06:20 AM 32.4°F0.2°C 24.4°F-4.2°C 72% 1.0 mph NW1.6 kmh NW 5.0 mph8.0 kmh 30.17 in1021.7 mb 0.00 in0.0 mm 0.00 in0.0 mm 0.00 in0.0 mm
06:10 AM 32.5°F0.3°C 23.8°F-4.6°C 70% 2.0 mph NW3.2 kmh NW 7.0 mph11.3 kmh 30.16 in1021.3 mb 0.00 in0.0 mm 0.00 in0.0 mm 0.00 in0.0 mm
06:00 AM 32.8°F0.4°C 23.7°F-4.6°C 69% 2.0 mph NW3.2 kmh NW 8.0 mph12.9 kmh 30.15 in1021.0 mb 0.00 in0.0 mm 0.00 in0.0 mm 0.00 in0.0 mm
05:50 AM 32.9°F0.5°C 23.8°F-4.6°C 69% 4.0 mph NW6.4 kmh NW 13.0 mph20.9 kmh 30.15 in1021.0 mb 0.00 in0.0 mm 0.00 in0.0 mm 0.00 in0.0 mm
05:40 AM 32.9°F0.5°C 24.2°F-4.3°C 70% 2.0 mph NW3.2 kmh NW 8.0 mph12.9 kmh 30.15 in1021.0 mb 0.00 in0.0 mm 0.00 in0.0 mm 0.00 in0.0 mm
05:30 AM 33.2°F0.7°C 24.1°F-4.4°C 69% 2.0 mph NW3.2 kmh NW 5.0 mph8.0 kmh 30.15 in1021.0 mb 0.00 in0.0 mm 0.00 in0.0 mm 0.00 in0.0 mm
05:20 AM 33.3°F0.7°C 23.9°F-4.5°C 68% 2.0 mph NW3.2 kmh NW 8.0 mph12.9 kmh 30.15 in1021.0 mb 0.00 in0.0 mm 0.00 in0.0 mm 0.00 in0.0 mm
05:10 AM 33.5°F0.8°C 23.7°F-4.6°C 67% 2.0 mph NW3.2 kmh NW 6.0 mph9.7 kmh 30.14 in1020.7 mb 0.00 in0.0 mm 0.00 in0.0 mm 0.00 in0.0 mm
05:00 AM 33.7°F0.9°C 23.9°F-4.5°C 67% 2.0 mph NW3.2 kmh NW 9.0 mph14.5 kmh 30.14 in1020.7 mb 0.00 in0.0 mm 0.00 in0.0 mm 0.00 in0.0 mm
04:50 AM 33.9°F1.1°C 23.4°F-4.8°C 65% 2.0 mph NW3.2 kmh NW 12.0 mph19.3 kmh 30.14 in1020.7 mb 0.00 in0.0 mm 0.00 in0.0 mm 0.00 in0.0 mm
04:40 AM 34.1°F1.2°C 23.9°F-4.5°C 66% 3.0 mph NW4.8 kmh NW 12.0 mph19.3 kmh 30.13 in1020.3 mb 0.00 in0.0 mm 0.00 in0.0 mm 0.00 in0.0 mm
04:30 AM 34.1°F1.2°C 24.6°F-4.1°C 68% 3.0 mph NW4.8 kmh NW 6.0 mph9.7 kmh 30.13 in1020.3 mb 0.00 in0.0 mm 0.00 in0.0 mm 0.00 in0.0 mm
04:20 AM 34.3°F1.3°C 24.8°F-4.0°C 68% 2.0 mph NW3.2 kmh NW 9.0 mph14.5 kmh 30.13 in1020.3 mb 0.00 in0.0 mm 0.00 in0.0 mm 0.00 in0.0 mm
04:10 AM 34.4°F1.3°C 24.9°F-3.9°C 68% 3.0 mph NW4.8 kmh NW 11.0 mph17.7 kmh 30.13 in1020.3 mb 0.00 in0.0 mm 0.00 in0.0 mm 0.00 in0.0 mm
04:00 AM 34.5°F1.4°C 26.1°F-3.3°C 71% 2.0 mph NW3.2 kmh NW 9.0 mph14.5 kmh 30.12 in1020.0 mb 0.00 in0.0 mm 0.00 in0.0 mm 0.00 in0.0 mm
03:50 AM 34.6°F1.4°C 25.8°F-3.4°C 70% 2.0 mph NW3.2 kmh NW 8.0 mph12.9 kmh 30.12 in1020.0 mb 0.00 in0.0 mm 0.00 in0.0 mm 0.00 in0.0 mm
03:40 AM 34.9°F1.6°C 26.1°F-3.3°C 70% 1.0 mph NW1.6 kmh NW 8.0 mph12.9 kmh 30.12 in1020.0 mb 0.00 in0.0 mm 0.00 in0.0 mm 0.00 in0.0 mm
03:30 AM 35.2°F1.8°C 26.7°F-2.9°C 71% 2.0 mph NW3.2 kmh NW 9.0 mph14.5 kmh 30.12 in1020.0 mb 0.00 in0.0 mm 0.00 in0.0 mm 0.00 in0.0 mm
03:20 AM 35.1°F1.7°C 26.3°F-3.2°C 70% 3.0 mph NW4.8 kmh NW 9.0 mph14.5 kmh 30.12 in1020.0 mb 0.00 in0.0 mm 0.00 in0.0 mm 0.00 in0.0 mm
03:10 AM 35.1°F1.7°C 27.0°F-2.8°C 72% 1.0 mph NW1.6 kmh NW 9.0 mph14.5 kmh 30.12 in1020.0 mb 0.00 in0.0 mm 0.00 in0.0 mm 0.00 in0.0 mm
03:00 AM 35.3°F1.8°C 27.5°F-2.5°C 73% 2.0 mph NW3.2 kmh NW 7.0 mph11.3 kmh 30.12 in1020.0 mb 0.00 in0.0 mm 0.00 in0.0 mm 0.00 in0.0 mm
02:50 AM 35.3°F1.8°C 26.8°F-2.9°C 71% 3.0 mph NW4.8 kmh NW 10.0 mph16.1 kmh 30.12 in1020.0 mb 0.00 in0.0 mm 0.00 in0.0 mm 0.00 in0.0 mm
02:40 AM 35.3°F1.8°C 26.5°F-3.1°C 70% 2.0 mph NW3.2 kmh NW 7.0 mph11.3 kmh 30.12 in1020.0 mb 0.00 in0.0 mm 0.00 in0.0 mm 0.00 in0.0 mm
02:30 AM 35.4°F1.9°C 26.2°F-3.2°C 69% 2.0 mph NW3.2 kmh NW 4.0 mph6.4 kmh 30.12 in1020.0 mb 0.00 in0.0 mm 0.00 in0.0 mm 0.00 in0.0 mm
02:20 AM 35.5°F1.9°C 26.3°F-3.2°C 69% 1.0 mph NW1.6 kmh NW 4.0 mph6.4 kmh 30.11 in1019.6 mb 0.00 in0.0 mm 0.00 in0.0 mm 0.00 in0.0 mm
02:10 AM 35.6°F2.0°C 26.1°F-3.3°C 68% 1.0 mph NW1.6 kmh NW 3.0 mph4.8 kmh 30.10 in1019.3 mb 0.00 in0.0 mm 0.00 in0.0 mm 0.00 in0.0 mm
02:00 AM 35.8°F2.1°C 25.9°F-3.4°C 67% 1.0 mph NW1.6 kmh NW 3.0 mph4.8 kmh 30.10 in1019.3 mb 0.00 in0.0 mm 0.00 in0.0 mm 0.00 in0.0 mm
01:50 AM 36.1°F2.3°C 25.5°F-3.6°C 65% 1.0 mph NW1.6 kmh NW 5.0 mph8.0 kmh 30.10 in1019.3 mb 0.00 in0.0 mm 0.00 in0.0 mm 0.00 in0.0 mm
01:40 AM 36.3°F2.4°C 26.0°F-3.3°C 66% 1.0 mph NW1.6 kmh NW 7.0 mph11.3 kmh 30.10 in1019.3 mb 0.00 in0.0 mm 0.00 in0.0 mm 0.00 in0.0 mm
01:30 AM 36.5°F2.5°C 25.5°F-3.6°C 64% 1.0 mph NW1.6 kmh NW 6.0 mph9.7 kmh 30.09 in1019.0 mb 0.00 in0.0 mm 0.00 in0.0 mm 0.00 in0.0 mm
01:20 AM 36.8°F2.7°C 26.1°F-3.3°C 65% 1.0 mph NW1.6 kmh NW 5.0 mph8.0 kmh 30.09 in1019.0 mb 0.00 in0.0 mm 0.00 in0.0 mm 0.00 in0.0 mm
01:10 AM 37.1°F2.8°C 26.0°F-3.3°C 64% 3.0 mph NW4.8 kmh NW 10.0 mph16.1 kmh 30.09 in1019.0 mb 0.00 in0.0 mm 0.00 in0.0 mm 0.00 in0.0 mm
01:00 AM 37.4°F3.0°C 25.6°F-3.6°C 62% 2.0 mph NW3.2 kmh NW 11.0 mph17.7 kmh 30.09 in1019.0 mb 0.00 in0.0 mm 0.00 in0.0 mm 0.00 in0.0 mm
12:50 AM 37.6°F3.1°C 25.7°F-3.5°C 62% 2.0 mph NW3.2 kmh NW 8.0 mph12.9 kmh 30.09 in1019.0 mb 0.00 in0.0 mm 0.00 in0.0 mm 0.00 in0.0 mm
12:40 AM 38.0°F3.3°C 25.7°F-3.5°C 61% 2.0 mph NW3.2 kmh NW 7.0 mph11.3 kmh 30.09 in1019.0 mb 0.00 in0.0 mm 0.00 in0.0 mm 0.00 in0.0 mm
12:30 AM 38.3°F3.5°C 25.6°F-3.6°C 60% 4.0 mph NW6.4 kmh NW 14.0 mph22.5 kmh 30.09 in1019.0 mb 0.00 in0.0 mm 0.00 in0.0 mm 0.00 in0.0 mm
12:20 AM 38.5°F3.6°C 26.6°F-3.0°C 62% 3.0 mph NW4.8 kmh NW 10.0 mph16.1 kmh 30.09 in1019.0 mb 0.00 in0.0 mm 0.00 in0.0 mm 0.00 in0.0 mm
12:10 AM 38.8°F3.8°C 26.9°F-2.8°C 62% 3.0 mph NW4.8 kmh NW 13.0 mph20.9 kmh 30.09 in1019.0 mb 0.00 in0.0 mm 0.00 in0.0 mm 0.00 in0.0 mm
12:00 AM 39.2°F4.0°C 28.0°F-2.2°C 64% 3.0 mph NW4.8 kmh NW 12.0 mph19.3 kmh 30.08 in1018.6 mb 0.00 in0.0 mm 0.00 in0.0 mm 0.00 in0.0 mm